^^
Saratoga-Weather Station Historical Data
Daily Summary for August 10, 2021 Units:  Both    English   Metric
Daily Weekly Monthly Yearly Custom
  High: Low: Average:
Temperature: 36.1 °F /  2.3 °C 32 °F /   °C 33.4 °F /  0.8 °C
Dew Point: 34.5 °F /  1.4 °C 32 °F /   °C 32.5 °F /  0.3 °C
Humidity: 96% % 53%
Wind Speed: 8.9mph /  14.3km/h - 1mph /  1.6km/h
Wind Gust: 11mph /  17.7km/h - -
Wind- - ENE
Pressure: 29.6 in /  1002.4 hPa 0 in /  0.0 hPa -
Precipitation: 0 in /  0.0 mm    
Historical Graphs
 
 
Tabular Data for August 10, 2021
Time Temperature Dew Point Pressure Wind Wind Speed Wind Gust Humidity Rainfall Rate (Hourly) solar
00:04 36 °F /  2.2 °C 34.2 °F /  1.2 °C 29.6in /  1002.4hPa ENE 2.9mph /  4.7km/h 4mph /  6.4km/h 93% 0in /  0.0mm 0 W/m2
00:09 36 °F /  2.2 °C 34.3 °F /  1.3 °C 29.6in /  1002.4hPa ENE 2.9mph /  4.7km/h 3mph /  4.8km/h 94% 0in /  0.0mm 0 W/m2
00:14 36 °F /  2.2 °C 34.3 °F /  1.3 °C 29.6in /  1002.0hPa Calm   4mph /  6.4km/h 94% 0in /  0.0mm 0 W/m2
00:19 36 °F /  2.2 °C 34.3 °F /  1.3 °C 29.6in /  1002.0hPa ENE 2.9mph /  4.7km/h 4mph /  6.4km/h 94% 0in /  0.0mm 0 W/m2
00:24 36 °F /  2.2 °C 34.3 °F /  1.3 °C 29.6in /  1002.0hPa East 2mph /  3.2km/h 3mph /  4.8km/h 94% 0in /  0.0mm 0 W/m2
00:29 36.1 °F /  2.3 °C 34.5 °F /  1.4 °C 29.6in /  1001.7hPa ENE 0.9mph /  1.4km/h 4mph /  6.4km/h 94% 0in /  0.0mm 0 W/m2
00:34 36 °F /  2.2 °C 34.3 °F /  1.3 °C 29.6in /  1001.7hPa ENE 2.9mph /  4.7km/h 4mph /  6.4km/h 94% 0in /  0.0mm 0 W/m2
00:39 36 °F /  2.2 °C 34.2 °F /  1.2 °C 29.6in /  1001.4hPa ENE 0.9mph /  1.4km/h 4mph /  6.4km/h 93% 0in /  0.0mm 0 W/m2
00:44 35.8 °F /  2.1 °C 34 °F /  1.1 °C 29.6in /  1001.4hPa NE 2mph /  3.2km/h 4mph /  6.4km/h 93% 0in /  0.0mm 0 W/m2
00:49 35.8 °F /  2.1 °C 34 °F /  1.1 °C 29.6in /  1001.0hPa NNE 2.9mph /  4.7km/h 3mph /  4.8km/h 93% 0in /  0.0mm 0 W/m2
00:54 35.8 °F /  2.1 °C 34 °F /  1.1 °C 29.6in /  1001.0hPa East 2.9mph /  4.7km/h 3mph /  4.8km/h 93% 0in /  0.0mm 0 W/m2
00:59 35.6 °F /  2 °C 34 °F /  1.1 °C 29.6in /  1000.7hPa ENE 2mph /  3.2km/h 3mph /  4.8km/h 94% 0in /  0.0mm 0 W/m2
01:04 35.4 °F /  1.9 °C 33.8 °F /  1 °C 29.5in /  1000.3hPa NE 0.9mph /  1.4km/h 2mph /  3.2km/h 94% 0in /  0.0mm 0 W/m2
01:09 35.4 °F /  1.9 °C 33.8 °F /  1 °C 29.5in /  1000.3hPa ESE 0.9mph /  1.4km/h 2mph /  3.2km/h 94% 0in /  0.0mm 0 W/m2
01:14 35.2 °F /  1.8 °C 33.6 °F /  0.9 °C 29.5in /  1000.3hPa East 0.9mph /  1.4km/h 2mph /  3.2km/h 94% 0in /  0.0mm 0 W/m2
01:19 35.2 °F /  1.8 °C 33.6 °F /  0.9 °C 29.5in /  1000.3hPa Calm   2mph /  3.2km/h 94% 0in /  0.0mm 0 W/m2
01:24 35.2 °F /  1.8 °C 33.6 °F /  0.9 °C 29.5in /  1000.0hPa ENE 2mph /  3.2km/h 4mph /  6.4km/h 94% 0in /  0.0mm 0 W/m2
01:29 35.2 °F /  1.8 °C 33.6 °F /  0.9 °C 29.5in /  999.7hPa SE 2mph /  3.2km/h 3mph /  4.8km/h 94% 0in /  0.0mm 0 W/m2
01:34 35.2 °F /  1.8 °C 33.6 °F /  0.9 °C 29.5in /  999.7hPa Calm   3mph /  4.8km/h 94% 0in /  0.0mm 0 W/m2
01:55 35.1 °F /  1.7 °C 33.4 °F /  0.8 °C 29.5in /  999.3hPa Calm     94% 0in /  0.0mm 0 W/m2
02:00 35.1 °F /  1.7 °C 33.4 °F /  0.8 °C 29.5in /  999.0hPa ENE 0.9mph /  1.4km/h 3mph /  4.8km/h 94% 0in /  0.0mm 0 W/m2
02:05 35.1 °F /  1.7 °C 33.4 °F /  0.8 °C 29.5in /  998.6hPa NE 2.9mph /  4.7km/h 3mph /  4.8km/h 94% 0in /  0.0mm 0 W/m2
02:10 35.1 °F /  1.7 °C 33.4 °F /  0.8 °C 29.5in /  998.6hPa NNE 0.9mph /  1.4km/h 1mph /  1.6km/h 94% 0in /  0.0mm 0 W/m2
02:15 34.9 °F /  1.6 °C 33.3 °F /  0.7 °C 29.5in /  998.6hPa ENE 0.9mph /  1.4km/h 3mph /  4.8km/h 94% 0in /  0.0mm 0 W/m2
02:20 34.5 °F /  1.4 °C 32.9 °F /  0.5 °C 29.5in /  998.6hPa Calm     94% 0in /  0.0mm 0 W/m2
02:25 34.3 °F /  1.3 °C 32.7 °F /  0.4 °C 29.5in /  998.3hPa Calm   3mph /  4.8km/h 94% 0in /  0.0mm 0 W/m2
02:30 34.2 °F /  1.2 °C 32.5 °F /  0.3 °C 29.5in /  998.3hPa Calm     94% 0in /  0.0mm 0 W/m2
02:35 34.2 °F /  1.2 °C 32.5 °F /  0.3 °C 29.5in /  998.3hPa Calm     94% 0in /  0.0mm 0 W/m2
02:40 33.8 °F /  1 °C 32.2 °F /  0.1 °C 29.5in /  998.0hPa Calm     94% 0in /  0.0mm 0 W/m2
02:45 33.4 °F /  0.8 °C 31.8 °F /  -0.1 °C 29.5in /  998.0hPa Calm     94% 0in /  0.0mm 0 W/m2
02:50 33.4 °F /  0.8 °C 31.8 °F /  -0.1 °C 29.5in /  998.0hPa Calm   1mph /  1.6km/h 94% 0in /  0.0mm 0 W/m2
02:55 33.4 °F /  0.8 °C 31.8 °F /  -0.1 °C 29.5in /  997.6hPa ENE 4mph /  6.4km/h 4mph /  6.4km/h 94% 0in /  0.0mm 0 W/m2
03:00 34 °F /  1.1 °C 32.7 °F /  0.4 °C 29.5in /  997.6hPa ESE 2.9mph /  4.7km/h 3mph /  4.8km/h 95% 0in /  0.0mm 0 W/m2
03:05 34.2 °F /  1.2 °C 32.9 °F /  0.5 °C 29.5in /  997.3hPa ENE 6mph /  9.7km/h 9mph /  14.5km/h 95% 0in /  0.0mm 0 W/m2
03:10 34.3 °F /  1.3 °C 33.1 °F /  0.6 °C 29.5in /  997.3hPa East 6.9mph /  11.1km/h 8mph /  12.9km/h 95% 0in /  0.0mm 0 W/m2
03:15 34.5 °F /  1.4 °C 33.3 °F /  0.7 °C 29.5in /  997.3hPa SE 2.9mph /  4.7km/h 4mph /  6.4km/h 95% 0in /  0.0mm 0 W/m2
03:20 34.5 °F /  1.4 °C 33.3 °F /  0.7 °C 29.5in /  997.3hPa ENE 2mph /  3.2km/h 8mph /  12.9km/h 95% 0in /  0.0mm 0 W/m2
03:25 34.5 °F /  1.4 °C 33.3 °F /  0.7 °C 29.5in /  997.3hPa ENE 0.9mph /  1.4km/h 8mph /  12.9km/h 95% 0in /  0.0mm 0 W/m2
03:30 34.7 °F /  1.5 °C 33.4 °F /  0.8 °C 29.4in /  997.0hPa ENE 2.9mph /  4.7km/h 10mph /  16.1km/h 95% 0in /  0.0mm 0 W/m2
03:35 34.9 °F /  1.6 °C 33.6 °F /  0.9 °C 29.4in /  997.0hPa East 2.9mph /  4.7km/h 11mph /  17.7km/h 95% 0in /  0.0mm 0 W/m2
03:40 34.9 °F /  1.6 °C 33.6 °F /  0.9 °C 29.4in /  997.0hPa ENE 2mph /  3.2km/h 10mph /  16.1km/h 95% 0in /  0.0mm 0 W/m2
03:45 34.9 °F /  1.6 °C 33.6 °F /  0.9 °C 29.4in /  996.6hPa ENE 2.9mph /  4.7km/h 11mph /  17.7km/h 95% 0in /  0.0mm 0 W/m2
03:50 35.1 °F /  1.7 °C 33.4 °F /  0.8 °C 29.4in /  996.6hPa East 2.9mph /  4.7km/h 9mph /  14.5km/h 94% 0in /  0.0mm 0 W/m2
03:55 35.1 °F /  1.7 °C 33.4 °F /  0.8 °C 29.4in /  996.3hPa NE 4mph /  6.4km/h 8mph /  12.9km/h 94% 0in /  0.0mm 0 W/m2
04:00 35.1 °F /  1.7 °C 33.4 °F /  0.8 °C 29.4in /  996.3hPa NE 4.9mph /  7.9km/h 6mph /  9.7km/h 94% 0in /  0.0mm 0 W/m2
04:20 34.9 °F /  1.6 °C 33.3 °F /  0.7 °C 29.4in /  995.9hPa ENE 2.9mph /  4.7km/h 7mph /  11.3km/h 94% 0in /  0.0mm 0 W/m2
04:25 34.9 °F /  1.6 °C 33.3 °F /  0.7 °C 29.4in /  995.6hPa East 4mph /  6.4km/h 7mph /  11.3km/h 94% 0in /  0.0mm 0 W/m2
04:30 34.9 °F /  1.6 °C 33.3 °F /  0.7 °C 29.4in /  995.6hPa NE 2.9mph /  4.7km/h 4mph /  6.4km/h 94% 0in /  0.0mm 0 W/m2
04:35 34.9 °F /  1.6 °C 33.3 °F /  0.7 °C 29.4in /  995.3hPa ENE 4mph /  6.4km/h 6mph /  9.7km/h 94% 0in /  0.0mm 0 W/m2
04:41 34.9 °F /  1.6 °C 33.3 °F /  0.7 °C 29.4in /  995.3hPa East 8.9mph /  14.3km/h 9mph /  14.5km/h 94% 0in /  0.0mm 0 W/m2
04:46 34.9 °F /  1.6 °C 33.3 °F /  0.7 °C 29.4in /  995.3hPa ENE 4mph /  6.4km/h 7mph /  11.3km/h 94% 0in /  0.0mm 0 W/m2
04:51 35.1 °F /  1.7 °C 33.4 °F /  0.8 °C 29.4in /  994.9hPa ENE 2.9mph /  4.7km/h 5mph /  8km/h 94% 0in /  0.0mm 0 W/m2
05:07 35.1 °F /  1.7 °C 33.3 °F /  0.7 °C 29.4in /  994.6hPa East 2mph /  3.2km/h 6mph /  9.7km/h 93% 0in /  0.0mm 0 W/m2
05:12 35.1 °F /  1.7 °C 33.3 °F /  0.7 °C 29.4in /  994.2hPa SE 2.9mph /  4.7km/h 8mph /  12.9km/h 93% 0in /  0.0mm 0 W/m2
05:17 35.1 °F /  1.7 °C 33.3 °F /  0.7 °C 29.4in /  994.2hPa ENE 4mph /  6.4km/h 7mph /  11.3km/h 93% 0in /  0.0mm 0 W/m2
05:22 35.2 °F /  1.8 °C 33.4 °F /  0.8 °C 29.4in /  994.2hPa SE 2.9mph /  4.7km/h 8mph /  12.9km/h 93% 0in /  0.0mm 0 W/m2
05:27 35.2 °F /  1.8 °C 33.4 °F /  0.8 °C 29.4in /  993.9hPa East 0.9mph /  1.4km/h 4mph /  6.4km/h 93% 0in /  0.0mm 0 W/m2
05:32 35.2 °F /  1.8 °C 33.4 °F /  0.8 °C 29.4in /  993.9hPa East 0.9mph /  1.4km/h 7mph /  11.3km/h 93% 0in /  0.0mm 0 W/m2
05:37 35.2 °F /  1.8 °C 33.4 °F /  0.8 °C 29.3in /  993.6hPa East 0.9mph /  1.4km/h 2mph /  3.2km/h 93% 0in /  0.0mm 0 W/m2
05:42 35.2 °F /  1.8 °C 33.4 °F /  0.8 °C 29.3in /  993.6hPa East 0.9mph /  1.4km/h 3mph /  4.8km/h 93% 0in /  0.0mm 0 W/m2
05:47 35.2 °F /  1.8 °C 33.4 °F /  0.8 °C 29.3in /  993.6hPa Calm   4mph /  6.4km/h 93% 0in /  0.0mm 0 W/m2
05:52 35.2 °F /  1.8 °C 33.4 °F /  0.8 °C 29.3in /  993.2hPa East 2mph /  3.2km/h 4mph /  6.4km/h 93% 0in /  0.0mm 0 W/m2
05:57 35.2 °F /  1.8 °C 33.4 °F /  0.8 °C 29.3in /  993.2hPa ESE 0.9mph /  1.4km/h 4mph /  6.4km/h 93% 0in /  0.0mm 0 W/m2
06:02 35.2 °F /  1.8 °C 33.1 °F /  0.6 °C 29.3in /  993.2hPa East 2.9mph /  4.7km/h 4mph /  6.4km/h 92% 0in /  0.0mm 0 W/m2
06:07 35.2 °F /  1.8 °C 33.1 °F /  0.6 °C 29.3in /  992.9hPa ENE 2.9mph /  4.7km/h 3mph /  4.8km/h 92% 0in /  0.0mm 0 W/m2
06:12 35.2 °F /  1.8 °C 33.1 °F /  0.6 °C 29.3in /  992.9hPa East 2mph /  3.2km/h 3mph /  4.8km/h 92% 0in /  0.0mm 0 W/m2
06:17 35.1 °F /  1.7 °C 32.9 °F /  0.5 °C 29.3in /  992.9hPa ENE 0.9mph /  1.4km/h 3mph /  4.8km/h 92% 0in /  0.0mm 0 W/m2
06:22 34.9 °F /  1.6 °C 33.1 °F /  0.6 °C 29.3in /  992.9hPa East 2mph /  3.2km/h 4mph /  6.4km/h 93% 0in /  0.0mm 0 W/m2
06:27 34.9 °F /  1.6 °C 33.1 °F /  0.6 °C 29.3in /  992.9hPa East 2mph /  3.2km/h 3mph /  4.8km/h 93% 0in /  0.0mm 0 W/m2
06:32 34.5 °F /  1.4 °C 32.7 °F /  0.4 °C 29.3in /  992.5hPa East 2mph /  3.2km/h 3mph /  4.8km/h 93% 0.01in /  0.2mm 0 W/m2
06:37 34.5 °F /  1.4 °C 32.7 °F /  0.4 °C 29.3in /  992.5hPa East 0.9mph /  1.4km/h 4mph /  6.4km/h 93% 0.01in /  0.2mm 0 W/m2
06:42 34.3 °F /  1.3 °C 32.5 °F /  0.3 °C 29.3in /  992.5hPa East 2mph /  3.2km/h 6mph /  9.7km/h 93% 0.01in /  0.2mm 0 W/m2
06:47 34.2 °F /  1.2 °C 32.4 °F /  0.2 °C 29.3in /  992.5hPa East 0.9mph /  1.4km/h 2mph /  3.2km/h 93% 0.01in /  0.2mm 0 W/m2
06:52 34 °F /  1.1 °C 32.2 °F /  0.1 °C 29.3in /  992.2hPa ESE 2.9mph /  4.7km/h 4mph /  6.4km/h 93% 0.01in /  0.2mm 0 W/m2
06:57 33.8 °F /  1 °C 32.2 °F /  0.1 °C 29.3in /  992.2hPa East 2mph /  3.2km/h 3mph /  4.8km/h 94% 0.01in /  0.2mm 0 W/m2
07:02 33.4 °F /  0.8 °C 31.8 °F /  -0.1 °C 29.3in /  991.9hPa ESE 4mph /  6.4km/h 4mph /  6.4km/h 94% 0.01in /  0.2mm 0 W/m2
07:07 33.4 °F /  0.8 °C 31.8 °F /  -0.1 °C 29.3in /  991.9hPa ENE 0.9mph /  1.4km/h 2mph /  3.2km/h 94% 0.01in /  0.2mm 0 W/m2
07:12 33.3 °F /  0.7 °C 31.6 °F /  -0.2 °C 29.3in /  991.9hPa East 0.9mph /  1.4km/h 1mph /  1.6km/h 94% 0.01in /  0.2mm 0 W/m2
07:17 33.3 °F /  0.7 °C 31.6 °F /  -0.2 °C 29.3in /  991.9hPa Calm   2mph /  3.2km/h 94% 0.01in /  0.2mm 0 W/m2
07:22 33.3 °F /  0.7 °C 32 °F /  0 °C 29.3in /  991.5hPa Calm   2mph /  3.2km/h 95% 0.01in /  0.2mm 0 W/m2
07:27 33.1 °F /  0.6 °C 31.8 °F /  -0.1 °C 29.3in /  991.5hPa ENE 0.9mph /  1.4km/h 3mph /  4.8km/h 95% 0.01in /  0.2mm 0 W/m2
07:32 33.1 °F /  0.6 °C 31.8 °F /  -0.1 °C 29.3in /  991.5hPa NE 0.9mph /  1.4km/h 2mph /  3.2km/h 95% 0in /  0.0mm 0 W/m2
07:37 33.1 °F /  0.6 °C 31.8 °F /  -0.1 °C 29.3in /  991.5hPa East 0.9mph /  1.4km/h 3mph /  4.8km/h 95% 0in /  0.0mm 0 W/m2
07:42 33.1 °F /  0.6 °C 31.8 °F /  -0.1 °C 29.3in /  991.5hPa East 0.9mph /  1.4km/h 2mph /  3.2km/h 95% 0in /  0.0mm 0 W/m2
07:48 32.9 °F /  0.5 °C 31.6 °F /  -0.2 °C 29.3in /  991.5hPa East 0.9mph /  1.4km/h 2mph /  3.2km/h 95% 0in /  0.0mm 0 W/m2
07:53 32.9 °F /  0.5 °C 31.6 °F /  -0.2 °C 29.3in /  991.2hPa Calm   1mph /  1.6km/h 95% 0in /  0.0mm 0 W/m2
07:58 32.9 °F /  0.5 °C 31.6 °F /  -0.2 °C 29.3in /  991.5hPa Calm   2mph /  3.2km/h 95% 0in /  0.0mm 0 W/m2
08:03 32.9 °F /  0.5 °C 31.6 °F /  -0.2 °C 29.3in /  991.2hPa ENE 0.9mph /  1.4km/h 2mph /  3.2km/h 95% 0in /  0.0mm 0 W/m2
08:08 32.9 °F /  0.5 °C 31.6 °F /  -0.2 °C 29.3in /  991.2hPa Calm   1mph /  1.6km/h 95% 0in /  0.0mm 0 W/m2
08:13 32.9 °F /  0.5 °C 31.6 °F /  -0.2 °C 29.3in /  991.2hPa Calm   2mph /  3.2km/h 95% 0in /  0.0mm 0 W/m2
08:18 32.9 °F /  0.5 °C 31.6 °F /  -0.2 °C 29.3in /  991.2hPa ENE 0.9mph /  1.4km/h 2mph /  3.2km/h 95% 0in /  0.0mm 0 W/m2
08:23 32.9 °F /  0.5 °C 31.6 °F /  -0.2 °C 29.3in /  991.2hPa Calm   2mph /  3.2km/h 95% 0in /  0.0mm 0 W/m2
08:28 32.9 °F /  0.5 °C 31.6 °F /  -0.2 °C 29.3in /  991.2hPa ENE 2mph /  3.2km/h 2mph /  3.2km/h 95% 0in /  0.0mm 0 W/m2
08:46 32.7 °F /  0.4 °C 31.6 °F /  -0.2 °C 29.3in /  990.9hPa NNE 0.9mph /  1.4km/h 2mph /  3.2km/h 96% 0in /  0.0mm 0 W/m2
10:46 32 °F /   °C 32 °F /   °C 0in /  0.0hPa Calm     % 0in /  0.0mm W/m2
10:57 32 °F /   °C 32 °F /   °C 0in /  0.0hPa Calm     % 0in /  0.0mm W/m2
11:08 32 °F /   °C 32 °F /   °C 0in /  0.0hPa Calm     % 0in /  0.0mm W/m2
11:18 32 °F /   °C 32 °F /   °C 0in /  0.0hPa Calm     % 0in /  0.0mm W/m2
11:28 32 °F /   °C 32 °F /   °C 0in /  0.0hPa Calm     % 0in /  0.0mm W/m2
11:39 32 °F /   °C 32 °F /   °C 0in /  0.0hPa Calm     % 0in /  0.0mm W/m2
11:50 32 °F /   °C 32 °F /   °C 0in /  0.0hPa Calm     % 0in /  0.0mm W/m2
12:00 32 °F /   °C 32 °F /   °C 0in /  0.0hPa Calm     % 0in /  0.0mm W/m2
12:11 32 °F /   °C 32 °F /   °C 0in /  0.0hPa Calm     % 0in /  0.0mm W/m2
12:22 32 °F /   °C 32 °F /   °C 0in /  0.0hPa Calm     % 0in /  0.0mm W/m2
12:32 32 °F /   °C 32 °F /   °C 0in /  0.0hPa Calm     % 0in /  0.0mm W/m2
12:42 32 °F /   °C 32 °F /   °C 0in /  0.0hPa Calm     % 0in /  0.0mm W/m2
12:53 32 °F /   °C 32 °F /   °C 0in /  0.0hPa Calm     % 0in /  0.0mm W/m2
13:03 32 °F /   °C 32 °F /   °C 0in /  0.0hPa Calm     % 0in /  0.0mm W/m2
13:14 32 °F /   °C 32 °F /   °C 0in /  0.0hPa Calm     % 0in /  0.0mm W/m2
13:24 32 °F /   °C 32 °F /   °C 0in /  0.0hPa Calm     % 0in /  0.0mm W/m2
13:35 32 °F /   °C 32 °F /   °C 0in /  0.0hPa Calm     % 0in /  0.0mm W/m2
13:46 32 °F /   °C 32 °F /   °C 0in /  0.0hPa Calm     % 0in /  0.0mm W/m2
13:57 32 °F /   °C 32 °F /   °C 0in /  0.0hPa Calm     % 0in /  0.0mm W/m2
14:13 32 °F /   °C 32 °F /   °C 0in /  0.0hPa Calm     % 0in /  0.0mm W/m2
14:24 32 °F /   °C 32 °F /   °C 0in /  0.0hPa Calm     % 0in /  0.0mm W/m2
14:34 32 °F /   °C 32 °F /   °C 0in /  0.0hPa Calm     % 0in /  0.0mm W/m2
14:45 32 °F /   °C 32 °F /   °C 0in /  0.0hPa Calm     % 0in /  0.0mm W/m2
14:55 32 °F /   °C 32 °F /   °C 0in /  0.0hPa Calm     % 0in /  0.0mm W/m2
15:06 32 °F /   °C 32 °F /   °C 0in /  0.0hPa Calm     % 0in /  0.0mm W/m2
15:16 32 °F /   °C 32 °F /   °C 0in /  0.0hPa Calm     % 0in /  0.0mm W/m2
15:27 32 °F /   °C 32 °F /   °C 0in /  0.0hPa Calm     % 0in /  0.0mm W/m2
15:38 32 °F /   °C 32 °F /   °C 0in /  0.0hPa Calm     % 0in /  0.0mm W/m2
15:48 32 °F /   °C 32 °F /   °C 0in /  0.0hPa Calm     % 0in /  0.0mm W/m2
16:09 32 °F /   °C 32 °F /   °C 0in /  0.0hPa Calm     % 0in /  0.0mm W/m2
16:20 32 °F /   °C 32 °F /   °C 0in /  0.0hPa Calm     % 0in /  0.0mm W/m2
16:31 32 °F /   °C 32 °F /   °C 0in /  0.0hPa Calm     % 0in /  0.0mm W/m2
16:41 32 °F /   °C 32 °F /   °C 0in /  0.0hPa Calm     % 0in /  0.0mm W/m2
16:52 32 °F /   °C 32 °F /   °C 0in /  0.0hPa Calm     % 0in /  0.0mm W/m2
17:02 32 °F /   °C 32 °F /   °C 0in /  0.0hPa Calm     % 0in /  0.0mm W/m2
17:13 32 °F /   °C 32 °F /   °C 0in /  0.0hPa Calm     % 0in /  0.0mm W/m2
17:23 32 °F /   °C 32 °F /   °C 0in /  0.0hPa Calm     % 0in /  0.0mm W/m2
17:34 32 °F /   °C 32 °F /   °C 0in /  0.0hPa Calm     % 0in /  0.0mm W/m2
17:44 32 °F /   °C 32 °F /   °C 0in /  0.0hPa Calm     % 0in /  0.0mm W/m2
17:55 32 °F /   °C 32 °F /   °C 0in /  0.0hPa Calm     % 0in /  0.0mm W/m2
18:05 32 °F /   °C 32 °F /   °C 0in /  0.0hPa Calm     % 0in /  0.0mm W/m2
18:16 32 °F /   °C 32 °F /   °C 0in /  0.0hPa Calm     % 0in /  0.0mm W/m2
18:27 32 °F /   °C 32 °F /   °C 0in /  0.0hPa Calm     % 0in /  0.0mm W/m2
18:37 32 °F /   °C 32 °F /   °C 0in /  0.0hPa Calm     % 0in /  0.0mm W/m2
18:48 32 °F /   °C 32 °F /   °C 0in /  0.0hPa Calm     % 0in /  0.0mm W/m2
18:59 32 °F /   °C 32 °F /   °C 0in /  0.0hPa Calm     % 0in /  0.0mm W/m2
19:09 32 °F /   °C 32 °F /   °C 0in /  0.0hPa Calm     % 0in /  0.0mm W/m2
19:20 32 °F /   °C 32 °F /   °C 0in /  0.0hPa Calm     % 0in /  0.0mm W/m2
19:30 32 °F /   °C 32 °F /   °C 0in /  0.0hPa Calm     % 0in /  0.0mm W/m2
19:40 32 °F /   °C 32 °F /   °C 0in /  0.0hPa Calm     % 0in /  0.0mm W/m2
19:51 32 °F /   °C 32 °F /   °C 0in /  0.0hPa Calm     % 0in /  0.0mm W/m2
20:01 32 °F /   °C 32 °F /   °C 0in /  0.0hPa Calm     % 0in /  0.0mm W/m2
20:12 32 °F /   °C 32 °F /   °C 0in /  0.0hPa Calm     % 0in /  0.0mm W/m2
20:23 32 °F /   °C 32 °F /   °C 0in /  0.0hPa Calm     % 0in /  0.0mm W/m2
20:34 32 °F /   °C 32 °F /   °C 0in /  0.0hPa Calm     % 0in /  0.0mm W/m2
20:44 32 °F /   °C 32 °F /   °C 0in /  0.0hPa Calm     % 0in /  0.0mm W/m2
20:54 32 °F /   °C 32 °F /   °C 0in /  0.0hPa Calm     % 0in /  0.0mm W/m2
21:05 32 °F /   °C 32 °F /   °C 0in /  0.0hPa Calm     % 0in /  0.0mm W/m2
21:16 32 °F /   °C 32 °F /   °C 0in /  0.0hPa Calm     % 0in /  0.0mm W/m2
21:26 32 °F /   °C 32 °F /   °C 0in /  0.0hPa Calm     % 0in /  0.0mm W/m2
21:37 32 °F /   °C 32 °F /   °C 0in /  0.0hPa Calm     % 0in /  0.0mm W/m2
21:47 32 °F /   °C 32 °F /   °C 0in /  0.0hPa Calm     % 0in /  0.0mm W/m2
21:58 32 °F /   °C 32 °F /   °C 0in /  0.0hPa Calm     % 0in /  0.0mm W/m2
22:09 32 °F /   °C 32 °F /   °C 0in /  0.0hPa Calm     % 0in /  0.0mm W/m2
22:19 32 °F /   °C 32 °F /   °C 0in /  0.0hPa Calm     % 0in /  0.0mm W/m2
22:29 32 °F /   °C 32 °F /   °C 0in /  0.0hPa Calm     % 0in /  0.0mm W/m2
22:40 32 °F /   °C 32 °F /   °C 0in /  0.0hPa Calm     % 0in /  0.0mm W/m2
22:51 32 °F /   °C 32 °F /   °C 0in /  0.0hPa Calm     % 0in /  0.0mm W/m2
23:01 32 °F /   °C 32 °F /   °C 0in /  0.0hPa Calm     % 0in /  0.0mm W/m2
23:12 32 °F /   °C 32 °F /   °C 0in /  0.0hPa Calm     % 0in /  0.0mm W/m2
23:22 32 °F /   °C 32 °F /   °C 0in /  0.0hPa Calm     % 0in /  0.0mm W/m2
23:33 32 °F /   °C 32 °F /   °C 0in /  0.0hPa Calm     % 0in /  0.0mm W/m2
23:44 32 °F /   °C 32 °F /   °C 0in /  0.0hPa Calm     % 0in /  0.0mm W/m2
23:54 32 °F /   °C 32 °F /   °C 0in /  0.0hPa Calm     % 0in /  0.0mm W/m2
Juneau County Weather
Compliments of Weather Underground - 2 mb